sensor_id;sensor_type;location;lat;lon;timestamp;pressure;altitude;pressure_sealevel;temperature;humidity
58243;BME280;50118;53.232;8.252;2023-04-08T00:00:57;102221.50;;;3.62;100.00
58243;BME280;50118;53.232;8.252;2023-04-08T00:03:22;102217.84;;;3.64;100.00
58243;BME280;50118;53.232;8.252;2023-04-08T00:05:48;102223.88;;;3.68;100.00
58243;BME280;50118;53.232;8.252;2023-04-08T00:08:13;102217.63;;;3.70;100.00
58243;BME280;50118;53.232;8.252;2023-04-08T00:10:38;102221.09;;;3.71;100.00
58243;BME280;50118;53.232;8.252;2023-04-08T00:13:04;102216.63;;;3.73;100.00
58243;BME280;50118;53.232;8.252;2023-04-08T00:15:29;102220.72;;;3.80;100.00
58243;BME280;50118;53.232;8.252;2023-04-08T00:17:55;102220.38;;;3.88;100.00
58243;BME280;50118;53.232;8.252;2023-04-08T00:20:22;102221.03;;;3.93;100.00
58243;BME280;50118;53.232;8.252;2023-04-08T00:22:47;102230.50;;;3.99;100.00
58243;BME280;50118;53.232;8.252;2023-04-08T00:25:13;102228.81;;;3.96;100.00
58243;BME280;50118;53.232;8.252;2023-04-08T00:27:38;102232.84;;;4.05;100.00
58243;BME280;50118;53.232;8.252;2023-04-08T00:30:04;102228.56;;;4.02;100.00
58243;BME280;50118;53.232;8.252;2023-04-08T00:32:30;102221.56;;;4.01;100.00
58243;BME280;50118;53.232;8.252;2023-04-08T00:34:55;102224.16;;;4.03;100.00
58243;BME280;50118;53.232;8.252;2023-04-08T00:37:20;102232.00;;;4.04;100.00
58243;BME280;50118;53.232;8.252;2023-04-08T00:39:47;102234.09;;;4.17;100.00
58243;BME280;50118;53.232;8.252;2023-04-08T00:42:12;102230.00;;;4.09;100.00
58243;BME280;50118;53.232;8.252;2023-04-08T00:44:38;102228.69;;;4.20;100.00
58243;BME280;50118;53.232;8.252;2023-04-08T00:47:03;102232.34;;;4.17;100.00
58243;BME280;50118;53.232;8.252;2023-04-08T00:49:30;102235.81;;;4.18;100.00
58243;BME280;50118;53.232;8.252;2023-04-08T00:51:56;102242.00;;;4.17;100.00
58243;BME280;50118;53.232;8.252;2023-04-08T00:54:21;102244.69;;;4.15;100.00
58243;BME280;50118;53.232;8.252;2023-04-08T00:56:47;102231.19;;;4.23;100.00
58243;BME280;50118;53.232;8.252;2023-04-08T00:59:13;102234.88;;;4.19;100.00
58243;BME280;50118;53.232;8.252;2023-04-08T01:07:26;102234.81;;;4.20;100.00
58243;BME280;50118;53.232;8.252;2023-04-08T01:09:54;102229.09;;;4.10;100.00
58243;BME280;50118;53.232;8.252;2023-04-08T01:12:27;102231.44;;;4.17;100.00
58243;BME280;50118;53.232;8.252;2023-04-08T01:15:05;102227.97;;;4.16;100.00
58243;BME280;50118;53.232;8.252;2023-04-08T01:17:31;102233.31;;;4.15;100.00
58243;BME280;50118;53.232;8.252;2023-04-08T01:19:59;102236.25;;;4.07;100.00
58243;BME280;50118;53.232;8.252;2023-04-08T01:23:00;102242.00;;;4.17;100.00
58243;BME280;50118;53.232;8.252;2023-04-08T01:25:35;102238.47;;;4.18;100.00
58243;BME280;50118;53.232;8.252;2023-04-08T01:28:09;102236.94;;;4.12;100.00
58243;BME280;50118;53.232;8.252;2023-04-08T01:30:37;102237.44;;;4.20;100.00
58243;BME280;50118;53.232;8.252;2023-04-08T01:33:04;102241.34;;;4.11;100.00
58243;BME280;50118;53.232;8.252;2023-04-08T01:35:30;102230.00;;;4.09;100.00
58243;BME280;50118;53.232;8.252;2023-04-08T01:37:56;102227.38;;;4.09;100.00
58243;BME280;50118;53.232;8.252;2023-04-08T01:40:22;102244.78;;;4.14;100.00
58243;BME280;50118;53.232;8.252;2023-04-08T01:42:49;102249.91;;;4.17;100.00
58243;BME280;50118;53.232;8.252;2023-04-08T01:45:17;102244.69;;;4.15;100.00
58243;BME280;50118;53.232;8.252;2023-04-08T01:47:47;102253.50;;;4.16;100.00
58243;BME280;50118;53.232;8.252;2023-04-08T01:50:13;102244.88;;;4.12;100.00
58243;BME280;50118;53.232;8.252;2023-04-08T01:52:40;102252.56;;;4.17;100.00
58243;BME280;50118;53.232;8.252;2023-04-08T01:55:07;102253.16;;;4.23;100.00
58243;BME280;50118;53.232;8.252;2023-04-08T01:57:36;102250.69;;;4.19;100.00
58243;BME280;50118;53.232;8.252;2023-04-08T02:00:05;102253.16;;;4.23;100.00
58243;BME280;50118;53.232;8.252;2023-04-08T02:02:32;102253.16;;;4.23;100.00
58243;BME280;50118;53.232;8.252;2023-04-08T02:05:00;102257.56;;;4.23;100.00
58243;BME280;50118;53.232;8.252;2023-04-08T02:07:25;102251.44;;;4.22;100.00
58243;BME280;50118;53.232;8.252;2023-04-08T02:09:51;102260.88;;;4.28;100.00
58243;BME280;50118;53.232;8.252;2023-04-08T02:12:16;102255.59;;;4.28;100.00
58243;BME280;50118;53.232;8.252;2023-04-08T02:14:42;102250.44;;;4.25;100.00
58243;BME280;50118;53.232;8.252;2023-04-08T02:17:11;102252.44;;;4.20;100.00
58243;BME280;50118;53.232;8.252;2023-04-08T02:19:47;102248.94;;;4.19;100.00
58243;BME280;50118;53.232;8.252;2023-04-08T02:22:24;102256.91;;;4.18;100.00
58243;BME280;50118;53.232;8.252;2023-04-08T02:24:51;102255.97;;;4.19;100.00
58243;BME280;50118;53.232;8.252;2023-04-08T02:27:18;102249.00;;;4.18;100.00
58243;BME280;50118;53.232;8.252;2023-04-08T02:29:44;102255.84;;;4.22;100.00
58243;BME280;50118;53.232;8.252;2023-04-08T02:32:11;102265.47;;;4.23;100.00
58243;BME280;50118;53.232;8.252;2023-04-08T02:34:39;102255.72;;;4.25;100.00
58243;BME280;50118;53.232;8.252;2023-04-08T02:37:07;102258.22;;;4.28;100.00
58243;BME280;50118;53.232;8.252;2023-04-08T02:39:33;102264.53;;;4.24;100.00
58243;BME280;50118;53.232;8.252;2023-04-08T02:41:59;102261.25;;;4.19;100.00
58243;BME280;50118;53.232;8.252;2023-04-08T02:44:25;102256.06;;;4.17;100.00
58243;BME280;50118;53.232;8.252;2023-04-08T02:46:50;102265.81;;;4.15;100.00
58243;BME280;50118;53.232;8.252;2023-04-08T02:49:16;102255.97;;;4.19;100.00
58243;BME280;50118;53.232;8.252;2023-04-08T02:51:41;102257.56;;;4.23;100.00
58243;BME280;50118;53.232;8.252;2023-04-08T02:54:07;102262.84;;;4.23;100.00
58243;BME280;50118;53.232;8.252;2023-04-08T02:56:32;102262.25;;;4.16;100.00
58243;BME280;50118;53.232;8.252;2023-04-08T02:58:57;102262.19;;;4.18;100.00
58243;BME280;50118;53.232;8.252;2023-04-08T03:01:23;102268.38;;;4.17;100.00
58243;BME280;50118;53.232;8.252;2023-04-08T03:03:49;102262.00;;;4.22;100.00
58243;BME280;50118;53.232;8.252;2023-04-08T03:06:14;102269.03;;;4.22;100.00
58243;BME280;50118;53.232;8.252;2023-04-08T03:08:40;102268.13;;;4.23;100.00
58243;BME280;50118;53.232;8.252;2023-04-08T03:11:05;102277.06;;;4.19;100.00
58243;BME280;50118;53.232;8.252;2023-04-08T03:13:31;102276.03;;;4.23;100.00
58243;BME280;50118;53.232;8.252;2023-04-08T03:15:56;102270.69;;;4.24;100.00
58243;BME280;50118;53.232;8.252;2023-04-08T03:18:22;102270.75;;;4.23;100.00
58243;BME280;50118;53.232;8.252;2023-04-08T03:20:47;102275.25;;;4.21;100.00
58243;BME280;50118;53.232;8.252;2023-04-08T03:23:12;102275.09;;;4.24;100.00
58243;BME280;50118;53.232;8.252;2023-04-08T03:25:38;102274.25;;;4.23;100.00
58243;BME280;50118;53.232;8.252;2023-04-08T03:28:03;102272.69;;;4.19;100.00
58243;BME280;50118;53.232;8.252;2023-04-08T03:30:29;102277.16;;;4.17;100.00
58243;BME280;50118;53.232;8.252;2023-04-08T03:32:54;102269.03;;;4.22;100.00
58243;BME280;50118;53.232;8.252;2023-04-08T03:35:19;102271.53;;;4.25;100.00
58243;BME280;50118;53.232;8.252;2023-04-08T03:37:45;102260.34;;;4.20;100.00
58243;BME280;50118;53.232;8.252;2023-04-08T03:40:11;102263.63;;;4.25;100.00
58243;BME280;50118;53.232;8.252;2023-04-08T03:42:37;102268.00;;;4.26;100.00
58243;BME280;50118;53.232;8.252;2023-04-08T03:45:02;102264.41;;;4.27;100.00
58243;BME280;50118;53.232;8.252;2023-04-08T03:47:28;102264.41;;;4.27;100.00
58243;BME280;50118;53.232;8.252;2023-04-08T03:49:54;102271.41;;;4.28;100.00
58243;BME280;50118;53.232;8.252;2023-04-08T03:52:20;102255.19;;;4.17;100.00
58243;BME280;50118;53.232;8.252;2023-04-08T03:54:45;102263.75;;;4.22;100.00
58243;BME280;50118;53.232;8.252;2023-04-08T03:57:11;102268.84;;;4.26;100.00
58243;BME280;50118;53.232;8.252;2023-04-08T03:59:36;102280.38;;;4.24;100.00
58243;BME280;50118;53.232;8.252;2023-04-08T04:02:03;102273.28;;;4.26;100.00
58243;BME280;50118;53.232;8.252;2023-04-08T04:04:29;102276.56;;;4.31;100.00
58243;BME280;50118;53.232;8.252;2023-04-08T04:06:55;102267.28;;;4.22;100.00
58243;BME280;50118;53.232;8.252;2023-04-08T04:09:20;102275.19;;;4.22;100.00
58243;BME280;50118;53.232;8.252;2023-04-08T04:11:46;102278.63;;;4.24;100.00
58243;BME280;50118;53.232;8.252;2023-04-08T04:14:11;102280.25;;;4.27;100.00
58243;BME280;50118;53.232;8.252;2023-04-08T04:16:37;102282.94;;;4.25;100.00
58243;BME280;50118;53.232;8.252;2023-04-08T04:19:02;102287.63;;;4.19;100.00
58243;BME280;50118;53.232;8.252;2023-04-08T04:21:28;102287.38;;;4.25;100.00
58243;BME280;50118;53.232;8.252;2023-04-08T04:23:53;102278.69;;;4.23;100.00
58243;BME280;50118;53.232;8.252;2023-04-08T04:26:18;102284.66;;;4.26;100.00
58243;BME280;50118;53.232;8.252;2023-04-08T04:28:44;102286.41;;;4.27;100.00
58243;BME280;50118;53.232;8.252;2023-04-08T04:31:17;102283.81;;;4.26;100.00
58243;BME280;50118;53.232;8.252;2023-04-08T04:33:43;102279.88;;;4.16;100.00
58243;BME280;50118;53.232;8.252;2023-04-08T04:36:09;102290.91;;;4.24;100.00
58243;BME280;50118;53.232;8.252;2023-04-08T04:38:35;102286.09;;;4.34;100.00
58243;BME280;50118;53.232;8.252;2023-04-08T04:41:01;102278.91;;;4.37;100.00
58243;BME280;50118;53.232;8.252;2023-04-08T04:43:26;102285.25;;;4.33;100.00
58243;BME280;50118;53.232;8.252;2023-04-08T04:45:51;102291.88;;;4.23;100.00
58243;BME280;50118;53.232;8.252;2023-04-08T04:48:17;102282.34;;;4.19;100.00
58243;BME280;50118;53.232;8.252;2023-04-08T04:50:42;102297.78;;;4.28;100.00
58243;BME280;50118;53.232;8.252;2023-04-08T04:53:08;102306.63;;;4.27;100.00
58243;BME280;50118;53.232;8.252;2023-04-08T04:55:33;102285.53;;;4.27;100.00
58243;BME280;50118;53.232;8.252;2023-04-08T04:57:58;102290.19;;;4.20;100.00
58243;BME280;50118;53.232;8.252;2023-04-08T05:00:24;102296.06;;;4.27;100.00
58243;BME280;50118;53.232;8.252;2023-04-08T05:02:49;102297.91;;;4.25;100.00
58243;BME280;50118;53.232;8.252;2023-04-08T05:05:15;102303.91;;;4.28;100.00
58243;BME280;50118;53.232;8.252;2023-04-08T05:07:40;102302.47;;;4.21;100.00
58243;BME280;50118;53.232;8.252;2023-04-08T05:10:06;102302.28;;;4.26;100.00
58243;BME280;50118;53.232;8.252;2023-04-08T05:12:31;102309.25;;;4.27;100.00
58243;BME280;50118;53.232;8.252;2023-04-08T05:14:57;102308.41;;;4.26;100.00
58243;BME280;50118;53.232;8.252;2023-04-08T05:17:23;102314.47;;;4.28;100.00
58243;BME280;50118;53.232;8.252;2023-04-08T05:19:49;102312.63;;;4.30;100.00
58243;BME280;50118;53.232;8.252;2023-04-08T05:22:15;102318.97;;;4.26;100.00
58243;BME280;50118;53.232;8.252;2023-04-08T05:24:41;102304.94;;;4.26;100.00
58243;BME280;50118;53.232;8.252;2023-04-08T05:27:06;102311.78;;;4.30;100.00
58243;BME280;50118;53.232;8.252;2023-04-08T05:29:31;102311.59;;;4.35;100.00
58243;BME280;50118;53.232;8.252;2023-04-08T05:31:57;102320.94;;;4.42;100.00
58243;BME280;50118;53.232;8.252;2023-04-08T05:34:23;102320.81;;;4.45;100.00
58243;BME280;50118;53.232;8.252;2023-04-08T05:36:49;102315.53;;;4.45;100.00
58243;BME280;50118;53.232;8.252;2023-04-08T05:39:18;102326.56;;;4.55;100.00
58243;BME280;50118;53.232;8.252;2023-04-08T05:41:43;102329.97;;;4.57;100.00
58243;BME280;50118;53.232;8.252;2023-04-08T05:44:10;102342.50;;;4.52;100.00
58243;BME280;50118;53.232;8.252;2023-04-08T05:46:36;102345.81;;;4.57;100.00
58243;BME280;50118;53.232;8.252;2023-04-08T05:49:02;102336.22;;;4.54;100.00
58243;BME280;50118;53.232;8.252;2023-04-08T05:51:27;102336.28;;;4.53;100.00
58243;BME280;50118;53.232;8.252;2023-04-08T05:53:53;102337.97;;;4.55;100.00
58243;BME280;50118;53.232;8.252;2023-04-08T05:56:18;102339.22;;;4.67;100.00
58243;BME280;50118;53.232;8.252;2023-04-08T05:58:43;102345.19;;;4.71;100.00
58243;BME280;50118;53.232;8.252;2023-04-08T06:01:09;102343.16;;;4.77;100.00
58243;BME280;50118;53.232;8.252;2023-04-08T06:03:34;102344.44;;;4.88;100.00
58243;BME280;50118;53.232;8.252;2023-04-08T06:06:00;102349.03;;;4.84;100.00
58243;BME280;50118;53.232;8.252;2023-04-08T06:08:25;102356.31;;;4.98;100.00
58243;BME280;50118;53.232;8.252;2023-04-08T06:10:51;102348.31;;;4.80;100.00
58243;BME280;50118;53.232;8.252;2023-04-08T06:13:16;102356.56;;;4.92;100.00
58243;BME280;50118;53.232;8.252;2023-04-08T06:15:42;102359.81;;;4.98;100.00
58243;BME280;50118;53.232;8.252;2023-04-08T06:18:07;102362.31;;;5.01;100.00
58243;BME280;50118;53.232;8.252;2023-04-08T06:20:34;102373.59;;;5.05;100.00
58243;BME280;50118;53.232;8.252;2023-04-08T06:23:00;102357.88;;;5.02;100.00
58243;BME280;50118;53.232;8.252;2023-04-08T06:25:25;102372.25;;;5.15;100.00
58243;BME280;50118;53.232;8.252;2023-04-08T06:27:51;102364.63;;;5.09;100.00
58243;BME280;50118;53.232;8.252;2023-04-08T06:30:19;102368.03;;;5.11;100.00
58243;BME280;50118;53.232;8.252;2023-04-08T06:32:46;102368.69;;;5.16;100.00
58243;BME280;50118;53.232;8.252;2023-04-08T06:35:12;102362.13;;;5.06;100.00
58243;BME280;50118;53.232;8.252;2023-04-08T06:37:37;102364.06;;;5.21;100.00
58243;BME280;50118;53.232;8.252;2023-04-08T06:40:04;102370.44;;;5.16;100.00
58243;BME280;50118;53.232;8.252;2023-04-08T06:42:30;102376.19;;;5.26;100.00
58243;BME280;50118;53.232;8.252;2023-04-08T06:44:55;102375.19;;;5.09;100.00
58243;BME280;50118;53.232;8.252;2023-04-08T06:47:22;102372.75;;;5.23;100.00
58243;BME280;50118;53.232;8.252;2023-04-08T06:49:47;102372.31;;;5.33;100.00
58243;BME280;50118;53.232;8.252;2023-04-08T06:52:13;102384.47;;;5.37;100.00
58243;BME280;50118;53.232;8.252;2023-04-08T06:54:38;102390.03;;;5.31;100.00
58243;BME280;50118;53.232;8.252;2023-04-08T06:57:04;102401.63;;;5.28;100.00
58243;BME280;50118;53.232;8.252;2023-04-08T06:59:29;102408.06;;;5.41;100.00
58243;BME280;50118;53.232;8.252;2023-04-08T07:01:55;102401.03;;;5.40;100.00
58243;BME280;50118;53.232;8.252;2023-04-08T07:04:20;102401.63;;;5.28;100.00
58243;BME280;50118;53.232;8.252;2023-04-08T07:06:46;102406.03;;;5.28;100.00
58243;BME280;50118;53.232;8.252;2023-04-08T07:09:11;102402.34;;;5.32;100.00
58243;BME280;50118;53.232;8.252;2023-04-08T07:11:36;102401.47;;;5.31;100.00
58243;BME280;50118;53.232;8.252;2023-04-08T07:14:02;102408.91;;;5.42;100.00
58243;BME280;50118;53.232;8.252;2023-04-08T07:16:27;102398.69;;;5.53;100.00
58243;BME280;50118;53.232;8.252;2023-04-08T07:18:53;102402.84;;;5.59;100.00
58243;BME280;50118;53.232;8.252;2023-04-08T07:21:18;102399.88;;;5.65;100.00
58243;BME280;50118;53.232;8.252;2023-04-08T07:23:44;102408.38;;;5.72;100.00
58243;BME280;50118;53.232;8.252;2023-04-08T07:26:09;102411.81;;;5.93;100.00
58243;BME280;50118;53.232;8.252;2023-04-08T07:28:35;102411.75;;;5.94;100.00
58243;BME280;50118;53.232;8.252;2023-04-08T07:31:15;102409.75;;;6.00;100.00
58243;BME280;50118;53.232;8.252;2023-04-08T07:33:42;102415.31;;;5.93;100.00
58243;BME280;50118;53.232;8.252;2023-04-08T07:36:08;102414.16;;;5.80;100.00
58243;BME280;50118;53.232;8.252;2023-04-08T07:38:34;102403.44;;;5.83;100.00
58243;BME280;50118;53.232;8.252;2023-04-08T07:41:00;102421.03;;;5.84;100.00
58243;BME280;50118;53.232;8.252;2023-04-08T07:43:25;102416.19;;;5.75;100.00
58243;BME280;50118;53.232;8.252;2023-04-08T07:45:51;102416.75;;;5.63;100.00
58243;BME280;50118;53.232;8.252;2023-04-08T07:48:17;102426.25;;;6.05;100.00
58243;BME280;50118;53.232;8.252;2023-04-08T07:50:42;102426.34;;;6.03;100.00
58243;BME280;50118;53.232;8.252;2023-04-08T07:53:07;102423.31;;;5.92;100.00
58243;BME280;50118;53.232;8.252;2023-04-08T07:55:34;102430.41;;;5.91;100.00
58243;BME280;50118;53.232;8.252;2023-04-08T07:57:59;102418.81;;;5.75;100.00
58243;BME280;50118;53.232;8.252;2023-04-08T08:00:25;102424.47;;;5.86;100.00
58243;BME280;50118;53.232;8.252;2023-04-08T08:02:51;102428.47;;;5.76;100.00
58243;BME280;50118;53.232;8.252;2023-04-08T08:05:17;102422.59;;;5.88;100.00
58243;BME280;50118;53.232;8.252;2023-04-08T08:07:42;102426.03;;;5.90;100.00
58243;BME280;50118;53.232;8.252;2023-04-08T08:10:08;102418.63;;;5.98;100.00
58243;BME280;50118;53.232;8.252;2023-04-08T08:12:34;102427.59;;;5.94;100.00
58243;BME280;50118;53.232;8.252;2023-04-08T08:14:59;102413.09;;;5.65;100.00
58243;BME280;50118;53.232;8.252;2023-04-08T08:17:25;102427.59;;;5.75;100.00
58243;BME280;50118;53.232;8.252;2023-04-08T08:19:54;102426.66;;;5.95;100.00
58243;BME280;50118;53.232;8.252;2023-04-08T08:22:19;102437.38;;;5.92;100.00
58243;BME280;50118;53.232;8.252;2023-04-08T08:24:45;102439.59;;;6.21;100.00
58243;BME280;50118;53.232;8.252;2023-04-08T08:27:11;102433.25;;;6.42;100.00
58243;BME280;50118;53.232;8.252;2023-04-08T08:29:36;102436.38;;;6.50;100.00
58243;BME280;50118;53.232;8.252;2023-04-08T08:32:02;102438.78;;;6.72;100.00
58243;BME280;50118;53.232;8.252;2023-04-08T08:34:28;102448.09;;;6.62;100.00
58243;BME280;50118;53.232;8.252;2023-04-08T08:36:54;102444.47;;;6.47;100.00
58243;BME280;50118;53.232;8.252;2023-04-08T08:39:20;102440.63;;;6.53;100.00
58243;BME280;50118;53.232;8.252;2023-04-08T08:41:45;102450.13;;;6.40;100.00
58243;BME280;50118;53.232;8.252;2023-04-08T08:44:11;102443.44;;;6.32;100.00
58243;BME280;50118;53.232;8.252;2023-04-08T08:46:43;102447.69;;;6.35;100.00
58243;BME280;50118;53.232;8.252;2023-04-08T08:49:09;102457.56;;;6.50;100.00
58243;BME280;50118;53.232;8.252;2023-04-08T08:51:35;102455.41;;;6.40;100.00
58243;BME280;50118;53.232;8.252;2023-04-08T08:54:03;102450.44;;;6.33;100.00
58243;BME280;50118;53.232;8.252;2023-04-08T08:56:29;102462.13;;;6.47;100.00
58243;BME280;50118;53.232;8.252;2023-04-08T08:58:54;102467.25;;;6.67;100.00
58243;BME280;50118;53.232;8.252;2023-04-08T09:01:29;102464.63;;;6.50;100.00
58243;BME280;50118;53.232;8.252;2023-04-08T09:04:24;102470.69;;;7.04;100.00
58243;BME280;50118;53.232;8.252;2023-04-08T09:07:07;102477.22;;;7.15;100.00
58243;BME280;50118;53.232;8.252;2023-04-08T09:09:49;102470.38;;;6.58;100.00
58243;BME280;50118;53.232;8.252;2023-04-08T09:12:15;102473.38;;;6.69;100.00
58243;BME280;50118;53.232;8.252;2023-04-08T09:14:41;102478.00;;;6.47;100.00
58243;BME280;50118;53.232;8.252;2023-04-08T09:17:07;102472.88;;;6.61;100.00
58243;BME280;50118;53.232;8.252;2023-04-08T09:19:32;102476.94;;;6.68;100.00
58243;BME280;50118;53.232;8.252;2023-04-08T09:22:05;102478.50;;;6.90;100.00
58243;BME280;50118;53.232;8.252;2023-04-08T09:24:31;102475.06;;;7.05;100.00
58243;BME280;50118;53.232;8.252;2023-04-08T09:26:57;102478.25;;;6.95;100.00
58243;BME280;50118;53.232;8.252;2023-04-08T09:29:23;102478.72;;;7.03;100.00
58243;BME280;50118;53.232;8.252;2023-04-08T09:31:54;102489.81;;;6.76;100.00
58243;BME280;50118;53.232;8.252;2023-04-08T09:34:20;102486.06;;;6.80;100.00
58243;BME280;50118;53.232;8.252;2023-04-08T09:36:50;102492.75;;;6.87;100.00
58243;BME280;50118;53.232;8.252;2023-04-08T09:39:16;102488.84;;;6.77;100.00
58243;BME280;50118;53.232;8.252;2023-04-08T09:41:42;102493.53;;;6.72;100.00
58243;BME280;50118;53.232;8.252;2023-04-08T09:44:09;102484.28;;;6.98;100.00
58243;BME280;50118;53.232;8.252;2023-04-08T09:49:11;102487.88;;;7.13;100.00
58243;BME280;50118;53.232;8.252;2023-04-08T09:52:10;102487.34;;;7.24;100.00
58243;BME280;50118;53.232;8.252;2023-04-08T09:55:01;102494.34;;;7.25;100.00
58243;BME280;50118;53.232;8.252;2023-04-08T10:00:13;102480.00;;;7.78;100.00
58243;BME280;50118;53.232;8.252;2023-04-08T10:05:37;102486.31;;;7.60;100.00
58243;BME280;50118;53.232;8.252;2023-04-08T10:08:05;102476.50;;;7.94;100.00
58243;BME280;50118;53.232;8.252;2023-04-08T10:10:33;102477.38;;;7.78;100.00
58243;BME280;50118;53.232;8.252;2023-04-08T10:13:00;102469.81;;;7.86;100.00
58243;BME280;50118;53.232;8.252;2023-04-08T10:15:32;102484.81;;;8.19;100.00
58243;BME280;50118;53.232;8.252;2023-04-08T10:22:59;102478.09;;;8.28;100.00
58243;BME280;50118;53.232;8.252;2023-04-08T10:27:59;102478.47;;;7.90;100.00
58243;BME280;50118;53.232;8.252;2023-04-08T10:32:58;102491.84;;;7.89;100.00
58243;BME280;50118;53.232;8.252;2023-04-08T10:35:31;102481.81;;;8.10;100.00
58243;BME280;50118;53.232;8.252;2023-04-08T10:37:59;102489.41;;;8.32;100.00
58243;BME280;50118;53.232;8.252;2023-04-08T10:40:25;102488.75;;;7.96;100.00
58243;BME280;50118;53.232;8.252;2023-04-08T10:42:57;102493.88;;;8.15;100.00
58243;BME280;50118;53.232;8.252;2023-04-08T10:45:23;102489.50;;;8.30;100.00
58243;BME280;50118;53.232;8.252;2023-04-08T10:47:50;102490.44;;;8.13;100.00
58243;BME280;50118;53.232;8.252;2023-04-08T10:50:17;102478.28;;;8.25;100.00
58243;BME280;50118;53.232;8.252;2023-04-08T10:52:51;102490.00;;;8.53;100.00
58243;BME280;50118;53.232;8.252;2023-04-08T10:55:24;102492.94;;;8.78;100.00
58243;BME280;50118;53.232;8.252;2023-04-08T10:57:50;102492.16;;;8.46;100.00
58243;BME280;50118;53.232;8.252;2023-04-08T11:00:32;102492.88;;;8.02;100.00
58243;BME280;50118;53.232;8.252;2023-04-08T11:03:02;102495.91;;;8.10;100.00
58243;BME280;50118;53.232;8.252;2023-04-08T11:05:31;102493.69;;;8.18;100.00
58243;BME280;50118;53.232;8.252;2023-04-08T11:07:59;102487.69;;;8.31;100.00
58243;BME280;50118;53.232;8.252;2023-04-08T11:10:26;102481.25;;;8.51;100.00
58243;BME280;50118;53.232;8.252;2023-04-08T11:12:55;102494.13;;;8.58;100.00
58243;BME280;50118;53.232;8.252;2023-04-08T11:15:21;102487.53;;;8.80;100.00
58243;BME280;50118;53.232;8.252;2023-04-08T11:17:47;102505.03;;;8.98;100.00
58243;BME280;50118;53.232;8.252;2023-04-08T11:20:13;102490.34;;;8.31;100.00
58243;BME280;50118;53.232;8.252;2023-04-08T11:22:39;102495.91;;;8.42;100.00
58243;BME280;50118;53.232;8.252;2023-04-08T11:25:07;102493.34;;;8.56;100.00
58243;BME280;50118;53.232;8.252;2023-04-08T11:27:34;102500.19;;;8.60;100.00
58243;BME280;50118;53.232;8.252;2023-04-08T11:30:00;102493.47;;;8.69;100.00
58243;BME280;50118;53.232;8.252;2023-04-08T11:32:26;102501.31;;;8.25;100.00
58243;BME280;50118;53.232;8.252;2023-04-08T11:34:53;102490.88;;;8.53;100.00
58243;BME280;50118;53.232;8.252;2023-04-08T11:37:19;102491.97;;;8.49;100.00
58243;BME280;50118;53.232;8.252;2023-04-08T11:39:45;102496.13;;;8.07;100.00
58243;BME280;50118;53.232;8.252;2023-04-08T11:44:51;102490.09;;;8.51;100.00
58243;BME280;50118;53.232;8.252;2023-04-08T11:47:17;102504.75;;;8.89;100.00
58243;BME280;50118;53.232;8.252;2023-04-08T11:49:43;102495.69;;;8.47;100.00
58243;BME280;50118;53.232;8.252;2023-04-08T11:52:10;102498.91;;;8.36;100.00
58243;BME280;50118;53.232;8.252;2023-04-08T11:54:40;102494.72;;;8.32;100.00
58243;BME280;50118;53.232;8.252;2023-04-08T11:57:07;102497.03;;;8.84;100.00
58243;BME280;50118;53.232;8.252;2023-04-08T11:59:34;102494.16;;;9.46;100.00
58243;BME280;50118;53.232;8.252;2023-04-08T12:02:01;102501.47;;;9.86;100.00
58243;BME280;50118;53.232;8.252;2023-04-08T12:04:26;102491.72;;;9.43;100.00
58243;BME280;50118;53.232;8.252;2023-04-08T12:06:52;102498.78;;;10.00;100.00
58243;BME280;50118;53.232;8.252;2023-04-08T12:09:17;102489.75;;;9.88;100.00
58243;BME280;50118;53.232;8.252;2023-04-08T12:11:43;102489.94;;;10.27;99.52
58243;BME280;50118;53.232;8.252;2023-04-08T12:14:08;102489.28;;;9.82;100.00
58243;BME280;50118;53.232;8.252;2023-04-08T12:16:34;102490.50;;;10.05;100.00
58243;BME280;50118;53.232;8.252;2023-04-08T12:18:59;102488.50;;;10.63;98.43
58243;BME280;50118;53.232;8.252;2023-04-08T12:21:25;102490.66;;;10.96;97.94
58243;BME280;50118;53.232;8.252;2023-04-08T12:23:52;102488.94;;;10.82;96.69
58243;BME280;50118;53.232;8.252;2023-04-08T12:26:17;102496.22;;;10.40;100.00
58243;BME280;50118;53.232;8.252;2023-04-08T12:28:44;102488.59;;;10.07;100.00
58243;BME280;50118;53.232;8.252;2023-04-08T12:31:10;102494.44;;;9.56;100.00
58243;BME280;50118;53.232;8.252;2023-04-08T12:33:35;102495.78;;;9.49;100.00
58243;BME280;50118;53.232;8.252;2023-04-08T12:36:01;102495.84;;;9.33;100.00
58243;BME280;50118;53.232;8.252;2023-04-08T12:38:26;102496.75;;;9.62;100.00
58243;BME280;50118;53.232;8.252;2023-04-08T12:40:52;102494.91;;;10.19;100.00
58243;BME280;50118;53.232;8.252;2023-04-08T12:43:17;102500.50;;;10.01;100.00
58243;BME280;50118;53.232;8.252;2023-04-08T12:45:43;102490.91;;;10.40;100.00
58243;BME280;50118;53.232;8.252;2023-04-08T12:48:08;102498.69;;;10.29;100.00
58243;BME280;50118;53.232;8.252;2023-04-08T12:50:34;102492.88;;;10.37;100.00
58243;BME280;50118;53.232;8.252;2023-04-08T12:52:59;102492.91;;;10.22;100.00
58243;BME280;50118;53.232;8.252;2023-04-08T12:55:25;102498.84;;;10.13;100.00
58243;BME280;50118;53.232;8.252;2023-04-08T12:57:51;102488.06;;;10.15;100.00
58243;BME280;50118;53.232;8.252;2023-04-08T13:00:16;102494.06;;;10.73;97.20
58243;BME280;50118;53.232;8.252;2023-04-08T13:02:42;102493.38;;;10.29;98.41
58243;BME280;50118;53.232;8.252;2023-04-08T13:05:09;102500.78;;;10.78;97.41
58243;BME280;50118;53.232;8.252;2023-04-08T13:07:34;102500.66;;;10.67;100.00
58243;BME280;50118;53.232;8.252;2023-04-08T13:09:59;102490.63;;;10.58;100.00
58243;BME280;50118;53.232;8.252;2023-04-08T13:12:25;102497.47;;;9.93;100.00
58243;BME280;50118;53.232;8.252;2023-04-08T13:14:51;102489.41;;;10.22;100.00